sensor_id;sensor_type;location;lat;lon;timestamp;pressure;altitude;pressure_sealevel;temperature;humidity
52319;BME280;38258;51.148;14.068;2023-03-15T00:00:05;97542.06;;;-0.49;100.00
52319;BME280;38258;51.148;14.068;2023-03-15T00:02:34;97549.78;;;-0.41;100.00
52319;BME280;38258;51.148;14.068;2023-03-15T00:05:02;97554.03;;;-0.42;100.00
52319;BME280;38258;51.148;14.068;2023-03-15T00:07:29;97560.88;;;-0.44;100.00
52319;BME280;38258;51.148;14.068;2023-03-15T00:09:55;97562.59;;;-0.54;100.00
52319;BME280;38258;51.148;14.068;2023-03-15T00:12:22;97562.56;;;-0.55;100.00
52319;BME280;38258;51.148;14.068;2023-03-15T00:14:50;97567.72;;;-0.51;100.00
52319;BME280;38258;51.148;14.068;2023-03-15T00:17:18;97569.41;;;-0.59;100.00
52319;BME280;38258;51.148;14.068;2023-03-15T00:19:47;97579.66;;;-0.65;100.00
52319;BME280;38258;51.148;14.068;2023-03-15T00:22:13;97581.41;;;-0.60;100.00
52319;BME280;38258;51.148;14.068;2023-03-15T00:24:40;97590.81;;;-0.59;100.00
52319;BME280;38258;51.148;14.068;2023-03-15T00:27:08;97578.84;;;-0.55;100.00
52319;BME280;38258;51.148;14.068;2023-03-15T00:29:35;97598.53;;;-0.55;100.00
52319;BME280;38258;51.148;14.068;2023-03-15T00:32:02;97612.22;;;-0.53;100.00
52319;BME280;38258;51.148;14.068;2023-03-15T00:34:31;97613.94;;;-0.55;100.00
52319;BME280;38258;51.148;14.068;2023-03-15T00:36:58;97591.69;;;-0.57;100.00
52319;BME280;38258;51.148;14.068;2023-03-15T00:39:25;97614.78;;;-0.61;100.00
52319;BME280;38258;51.148;14.068;2023-03-15T00:41:52;97579.56;;;-0.87;100.00
52319;BME280;38258;51.148;14.068;2023-03-15T00:44:21;97621.66;;;-0.59;100.00
52319;BME280;38258;51.148;14.068;2023-03-15T00:46:48;97610.50;;;-0.64;100.00
52319;BME280;38258;51.148;14.068;2023-03-15T00:49:15;97627.72;;;-0.43;100.00
52319;BME280;38258;51.148;14.068;2023-03-15T00:51:43;97623.44;;;-0.37;100.00
52319;BME280;38258;51.148;14.068;2023-03-15T00:54:10;97621.69;;;-0.37;100.00
52319;BME280;38258;51.148;14.068;2023-03-15T00:56:38;97617.47;;;-0.29;100.00
52319;BME280;38258;51.148;14.068;2023-03-15T00:59:05;97632.03;;;-0.27;100.00
52319;BME280;38258;51.148;14.068;2023-03-15T01:01:32;97618.28;;;-0.31;100.00
52319;BME280;38258;51.148;14.068;2023-03-15T01:03:59;97622.59;;;-0.22;100.00
52319;BME280;38258;51.148;14.068;2023-03-15T01:06:27;97634.59;;;-0.23;100.00
52319;BME280;38258;51.148;14.068;2023-03-15T01:08:55;97631.13;;;-0.48;100.00
52319;BME280;38258;51.148;14.068;2023-03-15T01:11:24;97627.63;;;-0.58;100.00
52319;BME280;38258;51.148;14.068;2023-03-15T01:13:51;97639.59;;;-0.60;100.00
52319;BME280;38258;51.148;14.068;2023-03-15T01:16:18;97637.06;;;-0.62;100.00
52319;BME280;38258;51.148;14.068;2023-03-15T01:18:45;97628.50;;;-0.56;100.00
52319;BME280;38258;51.148;14.068;2023-03-15T01:21:13;97643.88;;;-0.65;100.00
52319;BME280;38258;51.148;14.068;2023-03-15T01:23:41;97649.81;;;-0.79;100.00
52319;BME280;38258;51.148;14.068;2023-03-15T01:26:10;97653.22;;;-0.81;100.00
52319;BME280;38258;51.148;14.068;2023-03-15T01:28:37;97640.25;;;-1.03;100.00
52319;BME280;38258;51.148;14.068;2023-03-15T01:31:05;97658.22;;;-1.02;100.00
52319;BME280;38258;51.148;14.068;2023-03-15T01:33:32;97660.81;;;-1.03;100.00
52319;BME280;38258;51.148;14.068;2023-03-15T01:36:00;97664.19;;;-1.09;100.00
52319;BME280;38258;51.148;14.068;2023-03-15T01:38:27;97652.13;;;-1.16;100.00
52319;BME280;38258;51.148;14.068;2023-03-15T01:40:54;97659.94;;;-1.04;100.00
52319;BME280;38258;51.148;14.068;2023-03-15T01:43:23;97665.03;;;-1.10;100.00
52319;BME280;38258;51.148;14.068;2023-03-15T01:46:02;97660.81;;;-1.00;100.00
52319;BME280;38258;51.148;14.068;2023-03-15T01:48:35;97659.97;;;-0.97;100.00
52319;BME280;38258;51.148;14.068;2023-03-15T01:51:10;97666.78;;;-1.03;100.00
52319;BME280;38258;51.148;14.068;2023-03-15T01:53:42;97660.84;;;-0.95;100.00
52319;BME280;38258;51.148;14.068;2023-03-15T01:56:12;97658.28;;;-0.95;100.00
52319;BME280;38258;51.148;14.068;2023-03-15T01:58:41;97671.09;;;-0.98;100.00
52319;BME280;38258;51.148;14.068;2023-03-15T02:01:10;97670.19;;;-1.07;100.00
52319;BME280;38258;51.148;14.068;2023-03-15T02:03:44;97669.31;;;-1.06;100.00
52319;BME280;38258;51.148;14.068;2023-03-15T02:06:16;97666.75;;;-1.06;100.00
52319;BME280;38258;51.148;14.068;2023-03-15T02:08:51;97671.81;;;-1.18;100.00
52319;BME280;38258;51.148;14.068;2023-03-15T02:11:20;97668.28;;;-1.34;100.00
52319;BME280;38258;51.148;14.068;2023-03-15T02:13:50;97665.59;;;-1.50;100.00
52319;BME280;38258;51.148;14.068;2023-03-15T02:16:18;97668.19;;;-1.45;100.00
52319;BME280;38258;51.148;14.068;2023-03-15T02:18:52;97668.16;;;-1.51;100.00
52319;BME280;38258;51.148;14.068;2023-03-15T02:21:32;97682.59;;;-1.64;100.00
52319;BME280;38258;51.148;14.068;2023-03-15T02:24:09;97685.13;;;-1.63;100.00
52319;BME280;38258;51.148;14.068;2023-03-15T02:26:41;97654.25;;;-1.75;100.00
52319;BME280;38258;51.148;14.068;2023-03-15T02:29:11;97676.38;;;-1.85;100.00
52319;BME280;38258;51.148;14.068;2023-03-15T02:31:39;97687.50;;;-1.86;100.00
52319;BME280;38258;51.148;14.068;2023-03-15T02:34:07;97689.28;;;-1.77;100.00
52319;BME280;38258;51.148;14.068;2023-03-15T02:36:35;97685.97;;;-1.65;100.00
52319;BME280;38258;51.148;14.068;2023-03-15T02:39:12;97685.81;;;-1.81;100.00
52319;BME280;38258;51.148;14.068;2023-03-15T02:41:41;97685.72;;;-1.92;100.00
52319;BME280;38258;51.148;14.068;2023-03-15T02:44:13;97694.13;;;-2.05;100.00
52319;BME280;38258;51.148;14.068;2023-03-15T02:46:41;97688.25;;;-1.98;100.00
52319;BME280;38258;51.148;14.068;2023-03-15T02:49:10;97695.78;;;-2.10;100.00
52319;BME280;38258;51.148;14.068;2023-03-15T02:51:38;97711.00;;;-2.26;100.00
52319;BME280;38258;51.148;14.068;2023-03-15T02:54:05;97708.41;;;-2.29;100.00
52319;BME280;38258;51.148;14.068;2023-03-15T02:56:32;97710.84;;;-2.37;100.00
52319;BME280;38258;51.148;14.068;2023-03-15T02:59:00;97711.75;;;-2.35;100.00
52319;BME280;38258;51.148;14.068;2023-03-15T03:01:28;97717.00;;;-2.24;100.00
52319;BME280;38258;51.148;14.068;2023-03-15T03:03:56;97716.69;;;-2.49;100.00
52319;BME280;38258;51.148;14.068;2023-03-15T03:06:23;97731.19;;;-2.49;100.00
52319;BME280;38258;51.148;14.068;2023-03-15T03:08:50;97734.69;;;-2.43;100.00
52319;BME280;38258;51.148;14.068;2023-03-15T03:11:19;97728.59;;;-2.51;100.00
52319;BME280;38258;51.148;14.068;2023-03-15T03:13:46;97737.09;;;-2.53;100.00
52319;BME280;38258;51.148;14.068;2023-03-15T03:16:13;97747.19;;;-2.64;100.00
52319;BME280;38258;51.148;14.068;2023-03-15T03:18:43;97748.19;;;-2.54;100.00
52319;BME280;38258;51.148;14.068;2023-03-15T03:21:09;97724.16;;;-2.64;100.00
52319;BME280;38258;51.148;14.068;2023-03-15T03:23:36;97748.28;;;-2.48;100.00
52319;BME280;38258;51.148;14.068;2023-03-15T03:26:11;97750.56;;;-2.68;100.00
52319;BME280;38258;51.148;14.068;2023-03-15T03:28:42;97748.09;;;-2.61;100.00
52319;BME280;38258;51.148;14.068;2023-03-15T03:31:15;97743.78;;;-2.65;100.00
52319;BME280;38258;51.148;14.068;2023-03-15T03:33:45;97750.56;;;-2.67;100.00
52319;BME280;38258;51.148;14.068;2023-03-15T03:36:12;97753.50;;;-3.01;100.00
52319;BME280;38258;51.148;14.068;2023-03-15T03:38:40;97766.50;;;-2.87;100.00
52319;BME280;38258;51.148;14.068;2023-03-15T03:41:08;97763.72;;;-3.02;100.00
52319;BME280;38258;51.148;14.068;2023-03-15T03:43:36;97761.13;;;-3.05;100.00
52319;BME280;38258;51.148;14.068;2023-03-15T03:46:03;97770.22;;;-3.21;100.00
52319;BME280;38258;51.148;14.068;2023-03-15T03:48:33;97757.22;;;-3.35;100.00
52319;BME280;38258;51.148;14.068;2023-03-15T03:51:01;97773.03;;;-3.06;100.00
52319;BME280;38258;51.148;14.068;2023-03-15T03:53:28;97783.50;;;-2.90;100.00
52319;BME280;38258;51.148;14.068;2023-03-15T03:55:55;97789.38;;;-2.97;100.00
52319;BME280;38258;51.148;14.068;2023-03-15T03:58:22;97790.03;;;-3.09;100.00
52319;BME280;38258;51.148;14.068;2023-03-15T04:00:55;97789.38;;;-2.96;100.00
52319;BME280;38258;51.148;14.068;2023-03-15T04:03:24;97797.75;;;-3.08;100.00
52319;BME280;38258;51.148;14.068;2023-03-15T04:05:58;97797.03;;;-3.01;100.00
52319;BME280;38258;51.148;14.068;2023-03-15T04:08:28;97793.53;;;-3.04;100.00
52319;BME280;38258;51.148;14.068;2023-03-15T04:10:56;97796.91;;;-3.08;100.00
52319;BME280;38258;51.148;14.068;2023-03-15T04:13:26;97795.13;;;-3.09;100.00
52319;BME280;38258;51.148;14.068;2023-03-15T04:15:53;97800.97;;;-3.20;100.00
52319;BME280;38258;51.148;14.068;2023-03-15T04:18:23;97803.47;;;-3.21;100.00
52319;BME280;38258;51.148;14.068;2023-03-15T04:20:50;97803.31;;;-3.32;100.00
52319;BME280;38258;51.148;14.068;2023-03-15T04:23:20;97807.75;;;-3.22;100.00
52319;BME280;38258;51.148;14.068;2023-03-15T04:25:59;97816.94;;;-3.33;100.00
52319;BME280;38258;51.148;14.068;2023-03-15T04:28:44;97822.00;;;-3.36;100.00
52319;BME280;38258;51.148;14.068;2023-03-15T04:31:28;97820.25;;;-3.37;100.00
52319;BME280;38258;51.148;14.068;2023-03-15T04:34:20;97827.16;;;-3.32;100.00
52319;BME280;38258;51.148;14.068;2023-03-15T04:37:15;97829.72;;;-3.33;100.00
52319;BME280;38258;51.148;14.068;2023-03-15T04:40:13;97838.31;;;-3.30;100.00
52319;BME280;38258;51.148;14.068;2023-03-15T04:42:56;97832.31;;;-3.30;100.00
52319;BME280;38258;51.148;14.068;2023-03-15T04:45:43;97842.81;;;-3.15;100.00
52319;BME280;38258;51.148;14.068;2023-03-15T04:48:19;97840.03;;;-3.27;100.00
52319;BME280;38258;51.148;14.068;2023-03-15T04:51:04;97853.94;;;-3.14;100.00
52319;BME280;38258;51.148;14.068;2023-03-15T04:54:01;97860.72;;;-3.15;100.00
52319;BME280;38258;51.148;14.068;2023-03-15T04:56:48;97859.81;;;-3.20;100.00
52319;BME280;38258;51.148;14.068;2023-03-15T04:59:49;97861.16;;;-3.37;100.00
52319;BME280;38258;51.148;14.068;2023-03-15T05:02:40;97860.72;;;-3.15;100.00
52319;BME280;38258;51.148;14.068;2023-03-15T05:05:26;97870.72;;;-3.29;100.00
52319;BME280;38258;51.148;14.068;2023-03-15T05:08:32;97877.19;;;-3.00;100.00
52319;BME280;38258;51.148;14.068;2023-03-15T05:11:18;97879.88;;;-2.92;100.00
52319;BME280;38258;51.148;14.068;2023-03-15T05:14:02;97884.69;;;-3.09;100.00
52319;BME280;38258;51.148;14.068;2023-03-15T05:16:33;97890.78;;;-3.04;100.00
52319;BME280;38258;51.148;14.068;2023-03-15T05:19:32;97885.44;;;-3.17;100.00
52319;BME280;38258;51.148;14.068;2023-03-15T05:22:22;97893.19;;;-3.10;100.00
52319;BME280;38258;51.148;14.068;2023-03-15T05:25:16;97907.25;;;-2.88;100.00
52319;BME280;38258;51.148;14.068;2023-03-15T05:28:15;97910.97;;;-2.69;100.00
52319;BME280;38258;51.148;14.068;2023-03-15T05:30:49;97910.41;;;-2.52;100.00
52319;BME280;38258;51.148;14.068;2023-03-15T05:33:30;97921.44;;;-2.57;100.00
52319;BME280;38258;51.148;14.068;2023-03-15T05:36:23;97926.63;;;-2.52;100.00
52319;BME280;38258;51.148;14.068;2023-03-15T05:39:10;97924.03;;;-2.53;100.00
52319;BME280;38258;51.148;14.068;2023-03-15T05:41:59;97934.47;;;-2.43;100.00
52319;BME280;38258;51.148;14.068;2023-03-15T05:44:38;97930.09;;;-2.50;100.00
52319;BME280;38258;51.148;14.068;2023-03-15T05:47:25;97934.34;;;-2.50;100.00
52319;BME280;38258;51.148;14.068;2023-03-15T05:50:09;97942.00;;;-2.52;100.00
52319;BME280;38258;51.148;14.068;2023-03-15T05:52:53;97927.56;;;-2.48;100.00
52319;BME280;38258;51.148;14.068;2023-03-15T05:55:32;97950.06;;;-2.29;100.00
52319;BME280;38258;51.148;14.068;2023-03-15T05:58:22;97958.66;;;-2.23;100.00
52319;BME280;38258;51.148;14.068;2023-03-15T06:01:12;97957.13;;;-2.12;100.00
52319;BME280;38258;51.148;14.068;2023-03-15T06:03:57;97969.00;;;-2.19;100.00
52319;BME280;38258;51.148;14.068;2023-03-15T06:06:29;97966.75;;;-2.00;100.00
52319;BME280;38258;51.148;14.068;2023-03-15T06:08:56;97950.22;;;-2.18;100.00
52319;BME280;38258;51.148;14.068;2023-03-15T06:11:23;97973.59;;;-1.99;100.00
52319;BME280;38258;51.148;14.068;2023-03-15T06:13:50;97975.25;;;-2.01;100.00
52319;BME280;38258;51.148;14.068;2023-03-15T06:16:30;97969.50;;;-1.86;100.00
52319;BME280;38258;51.148;14.068;2023-03-15T06:19:00;97983.19;;;-1.84;100.00
52319;BME280;38258;51.148;14.068;2023-03-15T06:21:29;97985.13;;;-1.69;100.00
52319;BME280;38258;51.148;14.068;2023-03-15T06:23:56;97993.66;;;-1.68;100.00
52319;BME280;38258;51.148;14.068;2023-03-15T06:26:23;97979.22;;;-1.62;100.00
52319;BME280;38258;51.148;14.068;2023-03-15T06:28:54;97990.41;;;-1.58;100.00
52319;BME280;38258;51.148;14.068;2023-03-15T06:31:22;98005.19;;;-1.38;100.00
52319;BME280;38258;51.148;14.068;2023-03-15T06:33:55;97990.47;;;-1.52;100.00
52319;BME280;38258;51.148;14.068;2023-03-15T06:36:23;98000.16;;;-1.32;100.00
52319;BME280;38258;51.148;14.068;2023-03-15T06:38:51;98006.22;;;-1.24;100.00
52319;BME280;38258;51.148;14.068;2023-03-15T06:41:19;98007.19;;;-1.16;100.00
52319;BME280;38258;51.148;14.068;2023-03-15T06:43:49;98016.81;;;-0.99;100.00
52319;BME280;38258;51.148;14.068;2023-03-15T06:46:16;98020.28;;;-0.94;100.00
52319;BME280;38258;51.148;14.068;2023-03-15T06:48:43;98021.31;;;-0.78;100.00
52319;BME280;38258;51.148;14.068;2023-03-15T06:51:11;98031.78;;;-0.59;100.00
52319;BME280;38258;51.148;14.068;2023-03-15T06:53:38;98025.06;;;-0.49;100.00
52319;BME280;38258;51.148;14.068;2023-03-15T06:56:06;98021.81;;;-0.30;100.00
52319;BME280;38258;51.148;14.068;2023-03-15T06:58:33;98032.16;;;-0.25;100.00
52319;BME280;38258;51.148;14.068;2023-03-15T07:01:00;98026.94;;;-0.31;100.00
52319;BME280;38258;51.148;14.068;2023-03-15T07:03:26;98018.34;;;-0.35;100.00
52319;BME280;38258;51.148;14.068;2023-03-15T07:05:54;98036.47;;;-0.18;100.00
52319;BME280;38258;51.148;14.068;2023-03-15T07:08:23;98021.13;;;-0.11;100.00
52319;BME280;38258;51.148;14.068;2023-03-15T07:10:50;98040.84;;;-0.07;100.00
52319;BME280;38258;51.148;14.068;2023-03-15T07:13:19;98030.59;;;-0.06;100.00
52319;BME280;38258;51.148;14.068;2023-03-15T07:15:50;98034.16;;;0.09;100.00
52319;BME280;38258;51.148;14.068;2023-03-15T07:18:17;98036.00;;;0.32;100.00
52319;BME280;38258;51.148;14.068;2023-03-15T07:20:44;98037.81;;;0.45;100.00
52319;BME280;38258;51.148;14.068;2023-03-15T07:23:11;98021.53;;;0.46;100.00
52319;BME280;38258;51.148;14.068;2023-03-15T07:25:38;98032.75;;;0.58;100.00
52319;BME280;38258;51.148;14.068;2023-03-15T07:28:04;98040.50;;;0.62;100.00
52319;BME280;38258;51.148;14.068;2023-03-15T07:30:33;98025.19;;;0.92;100.00
52319;BME280;38258;51.148;14.068;2023-03-15T07:32:59;98032.16;;;1.13;100.00
52319;BME280;38258;51.148;14.068;2023-03-15T07:35:26;98025.34;;;1.26;100.00
52319;BME280;38258;51.148;14.068;2023-03-15T07:37:53;98030.53;;;1.31;100.00
52319;BME280;38258;51.148;14.068;2023-03-15T07:40:19;98027.97;;;1.41;100.00
52319;BME280;38258;51.148;14.068;2023-03-15T07:42:46;98035.72;;;1.63;100.00
52319;BME280;38258;51.148;14.068;2023-03-15T07:45:13;98035.72;;;1.55;100.00
52319;BME280;38258;51.148;14.068;2023-03-15T07:47:41;98039.19;;;1.75;100.00
52319;BME280;38258;51.148;14.068;2023-03-15T07:50:09;98049.47;;;1.58;100.00
52319;BME280;38258;51.148;14.068;2023-03-15T07:52:36;98058.13;;;1.89;100.00
52319;BME280;38258;51.148;14.068;2023-03-15T07:55:04;98062.44;;;1.89;100.00
52319;BME280;38258;51.148;14.068;2023-03-15T07:57:33;98048.66;;;2.07;100.00
52319;BME280;38258;51.148;14.068;2023-03-15T07:59:59;98056.44;;;2.13;100.00
52319;BME280;38258;51.148;14.068;2023-03-15T08:02:26;98043.53;;;2.22;100.00
52319;BME280;38258;51.148;14.068;2023-03-15T08:04:54;98052.13;;;2.45;100.00
52319;BME280;38258;51.148;14.068;2023-03-15T08:07:21;98053.78;;;2.63;100.00
52319;BME280;38258;51.148;14.068;2023-03-15T08:09:48;98063.31;;;2.51;100.00
52319;BME280;38258;51.148;14.068;2023-03-15T08:12:14;98054.63;;;2.77;100.00
52319;BME280;38258;51.148;14.068;2023-03-15T08:14:41;98054.66;;;2.68;100.00
52319;BME280;38258;51.148;14.068;2023-03-15T08:17:08;98056.25;;;3.06;100.00
52319;BME280;38258;51.148;14.068;2023-03-15T08:19:37;98065.66;;;3.31;100.00
52319;BME280;38258;51.148;14.068;2023-03-15T08:22:06;98070.78;;;3.42;100.00
52319;BME280;38258;51.148;14.068;2023-03-15T08:24:34;98059.44;;;3.71;100.00
52319;BME280;38258;51.148;14.068;2023-03-15T08:27:01;98075.00;;;3.61;100.00
52319;BME280;38258;51.148;14.068;2023-03-15T08:29:27;98063.44;;;4.14;100.00
52319;BME280;38258;51.148;14.068;2023-03-15T08:31:54;98074.13;;;3.62;100.00
52319;BME280;38258;51.148;14.068;2023-03-15T08:34:21;98077.72;;;3.29;100.00
52319;BME280;38258;51.148;14.068;2023-03-15T08:36:48;98086.91;;;3.92;100.00
52319;BME280;38258;51.148;14.068;2023-03-15T08:39:16;98081.97;;;4.69;100.00
52319;BME280;38258;51.148;14.068;2023-03-15T08:41:43;98074.06;;;3.70;99.65
52319;BME280;38258;51.148;14.068;2023-03-15T08:44:11;98091.63;;;2.90;100.00
52319;BME280;38258;51.148;14.068;2023-03-15T08:46:38;98095.94;;;2.94;100.00
52319;BME280;38258;51.148;14.068;2023-03-15T08:49:05;98098.41;;;3.25;100.00
52319;BME280;38258;51.148;14.068;2023-03-15T08:51:32;98077.00;;;2.85;100.00
52319;BME280;38258;51.148;14.068;2023-03-15T08:53:59;98086.47;;;2.95;100.00
52319;BME280;38258;51.148;14.068;2023-03-15T08:56:29;98100.25;;;2.89;100.00
52319;BME280;38258;51.148;14.068;2023-03-15T08:58:57;98085.56;;;3.04;100.00
52319;BME280;38258;51.148;14.068;2023-03-15T09:01:24;98112.19;;;3.28;100.00
52319;BME280;38258;51.148;14.068;2023-03-15T09:03:51;98114.00;;;3.04;100.00
52319;BME280;38258;51.148;14.068;2023-03-15T09:06:17;98127.84;;;2.51;100.00
52319;BME280;38258;51.148;14.068;2023-03-15T09:08:44;98129.47;;;1.86;100.00
52319;BME280;38258;51.148;14.068;2023-03-15T09:11:11;98142.31;;;1.65;100.00
52319;BME280;38258;51.148;14.068;2023-03-15T09:13:39;98151.69;;;1.45;100.00
52319;BME280;38258;51.148;14.068;2023-03-15T09:16:06;98148.34;;;1.74;100.00
52319;BME280;38258;51.148;14.068;2023-03-15T09:18:33;98152.66;;;1.78;100.00
52319;BME280;38258;51.148;14.068;2023-03-15T09:21:00;98161.94;;;1.32;100.00
52319;BME280;38258;51.148;14.068;2023-03-15T09:23:27;98162.75;;;1.26;100.00
52319;BME280;38258;51.148;14.068;2023-03-15T09:25:53;98164.31;;;1.01;100.00
52319;BME280;38258;51.148;14.068;2023-03-15T09:28:20;98132.38;;;0.71;100.00
52319;BME280;38258;51.148;14.068;2023-03-15T09:30:48;98167.63;;;0.83;100.00
52319;BME280;38258;51.148;14.068;2023-03-15T09:33:15;98169.38;;;0.82;100.00
52319;BME280;38258;51.148;14.068;2023-03-15T09:35:42;98166.69;;;0.70;100.00
52319;BME280;38258;51.148;14.068;2023-03-15T09:38:09;98174.44;;;0.73;100.00
52319;BME280;38258;51.148;14.068;2023-03-15T09:40:39;98160.53;;;0.51;100.00
52319;BME280;38258;51.148;14.068;2023-03-15T09:43:41;98185.56;;;0.69;100.00
52319;BME280;38258;51.148;14.068;2023-03-15T09:46:22;98157.19;;;0.63;100.00
52319;BME280;38258;51.148;14.068;2023-03-15T09:48:52;98185.66;;;0.83;100.00
52319;BME280;38258;51.148;14.068;2023-03-15T09:51:29;98186.63;;;0.96;100.00
52319;BME280;38258;51.148;14.068;2023-03-15T09:54:02;98183.44;;;1.36;100.00
52319;BME280;38258;51.148;14.068;2023-03-15T09:56:33;98173.19;;;1.48;100.00
52319;BME280;38258;51.148;14.068;2023-03-15T09:59:01;98180.06;;;1.46;100.00
52319;BME280;38258;51.148;14.068;2023-03-15T10:01:32;98189.66;;;1.80;100.00
52319;BME280;38258;51.148;14.068;2023-03-15T10:04:05;98185.22;;;1.46;100.00
52319;BME280;38258;51.148;14.068;2023-03-15T10:06:34;98172.13;;;1.12;100.00
52319;BME280;38258;51.148;14.068;2023-03-15T10:09:08;98186.03;;;1.44;100.00
52319;BME280;38258;51.148;14.068;2023-03-15T10:11:42;98194.53;;;1.29;100.00
52319;BME280;38258;51.148;14.068;2023-03-15T10:14:20;98191.97;;;1.24;100.00
52319;BME280;38258;51.148;14.068;2023-03-15T10:16:54;98191.97;;;1.24;100.00
52319;BME280;38258;51.148;14.068;2023-03-15T10:19:27;98193.63;;;1.17;100.00
52319;BME280;38258;51.148;14.068;2023-03-15T10:22:00;98191.97;;;1.24;100.00
52319;BME280;38258;51.148;14.068;2023-03-15T10:24:33;98189.34;;;1.19;100.00
52319;BME280;38258;51.148;14.068;2023-03-15T10:27:14;98185.97;;;1.30;100.00
52319;BME280;38258;51.148;14.068;2023-03-15T10:29:42;98163.53;;;1.08;100.00
52319;BME280;38258;51.148;14.068;2023-03-15T10:32:16;98186.91;;;1.46;100.00
52319;BME280;38258;51.148;14.068;2023-03-15T10:34:46;98176.38;;;1.04;100.00
52319;BME280;38258;51.148;14.068;2023-03-15T10:37:14;98191.91;;;1.21;100.00
52319;BME280;38258;51.148;14.068;2023-03-15T10:39:42;98193.72;;;1.36;100.00
52319;BME280;38258;51.148;14.068;2023-03-15T10:42:23;98183.47;;;1.47;100.00
52319;BME280;38258;51.148;14.068;2023-03-15T10:44:50;98186.75;;;1.16;100.00
52319;BME280;38258;51.148;14.068;2023-03-15T10:47:20;98174.84;;;1.37;100.00
52319;BME280;38258;51.148;14.068;2023-03-15T10:49:47;98198.84;;;1.31;100.00
52319;BME280;38258;51.148;14.068;2023-03-15T10:52:26;98176.66;;;1.52;100.00
52319;BME280;38258;51.148;14.068;2023-03-15T10:54:53;98189.41;;;1.33;100.00
52319;BME280;38258;51.148;14.068;2023-03-15T10:57:29;98195.59;;;1.68;100.00
52319;BME280;38258;51.148;14.068;2023-03-15T11:00:00;98199.84;;;1.55;100.00
52319;BME280;38258;51.148;14.068;2023-03-15T11:02:32;98194.69;;;1.57;100.00
52319;BME280;38258;51.148;14.068;2023-03-15T11:05:01;98207.41;;;1.22;100.00
52319;BME280;38258;51.148;14.068;2023-03-15T11:07:28;98209.69;;;0.82;100.00
52319;BME280;38258;51.148;14.068;2023-03-15T11:09:59;98217.19;;;0.57;100.00
52319;BME280;38258;51.148;14.068;2023-03-15T11:12:27;98224.84;;;0.49;100.00
52319;BME280;38258;51.148;14.068;2023-03-15T11:14:57;98217.38;;;0.76;100.00
52319;BME280;38258;51.148;14.068;2023-03-15T11:17:27;98201.13;;;0.86;100.00
52319;BME280;38258;51.148;14.068;2023-03-15T11:19:57;98194.44;;;1.10;100.00
52319;BME280;38258;51.148;14.068;2023-03-15T11:22:33;98206.63;;;1.37;100.00
52319;BME280;38258;51.148;14.068;2023-03-15T11:25:00;98222.19;;;1.56;100.00
52319;BME280;38258;51.148;14.068;2023-03-15T11:27:27;98208.53;;;1.74;100.00
52319;BME280;38258;51.148;14.068;2023-03-15T11:29:57;98208.53;;;1.77;100.00
52319;BME280;38258;51.148;14.068;2023-03-15T11:32:26;98213.78;;;1.97;100.00
52319;BME280;38258;51.148;14.068;2023-03-15T11:35:00;98206.94;;;2.12;100.00
52319;BME280;38258;51.148;14.068;2023-03-15T11:37:32;98199.28;;;2.60;100.00
52319;BME280;38258;51.148;14.068;2023-03-15T11:40:05;98222.44;;;2.15;100.00
52319;BME280;38258;51.148;14.068;2023-03-15T11:42:40;98210.41;;;2.26;100.00
52319;BME280;38258;51.148;14.068;2023-03-15T11:45:16;98209.59;;;2.43;100.00
52319;BME280;38258;51.148;14.068;2023-03-15T11:47:45;98209.53;;;2.21;100.00
52319;BME280;38258;51.148;14.068;2023-03-15T11:50:14;98183.72;;;2.21;100.00
52319;BME280;38258;51.148;14.068;2023-03-15T11:52:46;98204.38;;;2.26;100.00
52319;BME280;38258;51.148;14.068;2023-03-15T11:55:16;98204.44;;;2.37;100.00
52319;BME280;38258;51.148;14.068;2023-03-15T11:57:44;98202.72;;;2.62;100.00
52319;BME280;38258;51.148;14.068;2023-03-15T12:03:30;98203.56;;;2.50;100.00
52319;BME280;38258;51.148;14.068;2023-03-15T12:06:04;98188.06;;;2.55;100.00
52319;BME280;38258;51.148;14.068;2023-03-15T12:08:43;98206.16;;;2.91;100.00
52319;BME280;38258;51.148;14.068;2023-03-15T12:11:12;98199.25;;;3.22;100.00
52319;BME280;38258;51.148;14.068;2023-03-15T12:13:50;98197.50;;;3.28;100.00
52319;BME280;38258;51.148;14.068;2023-03-15T12:16:19;98201.56;;;3.97;100.00
52319;BME280;38258;51.148;14.068;2023-03-15T12:18:47;98191.88;;;4.35;100.00
52319;BME280;38258;51.148;14.068;2023-03-15T12:23:59;98187.53;;;4.45;100.00
52319;BME280;38258;51.148;14.068;2023-03-15T12:26:40;98180.75;;;4.16;100.00
52319;BME280;38258;51.148;14.068;2023-03-15T12:29:15;98168.06;;;3.74;100.00
52319;BME280;38258;51.148;14.068;2023-03-15T12:31:51;98187.16;;;3.20;100.00
52319;BME280;38258;51.148;14.068;2023-03-15T12:34:35;98188.94;;;2.77;100.00
52319;BME280;38258;51.148;14.068;2023-03-15T12:37:05;98199.28;;;2.66;100.00
52319;BME280;38258;51.148;14.068;2023-03-15T12:39:42;98194.13;;;2.68;100.00
52319;BME280;38258;51.148;14.068;2023-03-15T12:45:44;98199.25;;;3.15;100.00
52319;BME280;38258;51.148;14.068;2023-03-15T12:48:19;98200.97;;;3.06;100.00
52319;BME280;38258;51.148;14.068;2023-03-15T12:51:10;98196.59;;;3.44;100.00
52319;BME280;38258;51.148;14.068;2023-03-15T12:53:49;98195.69;;;3.62;100.00
52319;BME280;38258;51.148;14.068;2023-03-15T12:56:43;98206.50;;;4.47;100.00
52319;BME280;38258;51.148;14.068;2023-03-15T12:59:26;98203.56;;;4.89;100.00
52319;BME280;38258;51.148;14.068;2023-03-15T13:01:56;98206.97;;;4.97;100.00
52319;BME280;38258;51.148;14.068;2023-03-15T13:04:25;98213.72;;;3.82;100.00
52319;BME280;38258;51.148;14.068;2023-03-15T13:07:16;98210.25;;;3.85;100.00
52319;BME280;38258;51.148;14.068;2023-03-15T13:10:17;98207.88;;;3.04;100.00
52319;BME280;38258;51.148;14.068;2023-03-15T13:12:54;98219.06;;;3.11;100.00
52319;BME280;38258;51.148;14.068;2023-03-15T13:15:29;98183.78;;;2.96;100.00
52319;BME280;38258;51.148;14.068;2023-03-15T13:18:04;98213.84;;;3.41;100.00